createdAt,value
2022-10-26T00:02:54.591Z,10.20
2022-10-26T00:06:57.472Z,10.10
2022-10-26T00:11:01.761Z,10.10
2022-10-26T00:15:04.816Z,10.10
2022-10-26T00:19:07.685Z,10.00
2022-10-26T00:23:10.536Z,10.00
2022-10-26T00:27:14.762Z,10.00
2022-10-26T00:31:17.790Z,9.90
2022-10-26T00:35:23.995Z,9.90
2022-10-26T00:39:37.728Z,9.80
2022-10-26T00:43:41.892Z,9.80
2022-10-26T00:47:46.701Z,9.70
2022-10-26T00:51:50.908Z,9.70
2022-10-26T00:55:55.042Z,9.70
2022-10-26T00:59:59.735Z,9.60
2022-10-26T01:04:02.691Z,9.60
2022-10-26T01:08:05.884Z,9.60
2022-10-26T01:12:08.737Z,9.60
2022-10-26T01:16:18.182Z,9.60
2022-10-26T01:20:38.972Z,9.60
2022-10-26T01:24:56.744Z,9.60
2022-10-26T01:29:15.706Z,9.60
2022-10-26T01:33:30.186Z,9.60
2022-10-26T01:37:36.629Z,9.60
2022-10-26T01:41:43.872Z,9.60
2022-10-26T01:45:48.317Z,9.50
2022-10-26T01:49:54.777Z,9.50
2022-10-26T01:53:59.290Z,9.40
2022-10-26T01:58:08.551Z,9.30
2022-10-26T02:02:37.360Z,9.30
2022-10-26T02:06:46.036Z,9.30
2022-10-26T02:10:56.212Z,9.20
2022-10-26T02:15:01.628Z,9.20
2022-10-26T02:19:07.016Z,9.20
2022-10-26T02:23:12.529Z,9.20
2022-10-26T02:27:17.610Z,9.10
2022-10-26T02:31:21.058Z,9.00
2022-10-26T02:35:26.898Z,9.00
2022-10-26T02:39:33.502Z,9.00
2022-10-26T02:43:39.021Z,9.00
2022-10-26T02:47:41.935Z,9.00
2022-10-26T02:55:56.130Z,9.00
2022-10-26T02:59:59.242Z,9.00
2022-10-26T03:04:02.271Z,9.00
2022-10-26T03:08:05.379Z,9.00
2022-10-26T03:12:09.616Z,9.00
2022-10-26T03:16:12.514Z,9.00
2022-10-26T03:20:15.388Z,9.00
2022-10-26T03:24:18.194Z,9.00
2022-10-26T03:28:22.384Z,9.00
2022-10-26T03:32:25.285Z,8.90
2022-10-26T03:36:28.140Z,8.90
2022-10-26T03:40:30.972Z,8.90
2022-10-26T03:44:35.195Z,8.90
2022-10-26T03:48:38.012Z,8.80
2022-10-26T03:52:41.115Z,8.80
2022-10-26T03:56:43.931Z,8.70
2022-10-26T04:00:48.157Z,8.70
2022-10-26T04:04:50.998Z,8.70
2022-10-26T04:08:58.208Z,8.70
2022-10-26T04:13:01.382Z,8.60
2022-10-26T04:17:05.681Z,8.60
2022-10-26T04:21:08.528Z,8.70
2022-10-26T04:25:13.557Z,8.60
2022-10-26T04:29:16.377Z,8.60
2022-10-26T04:33:20.599Z,8.60
2022-10-26T04:37:23.524Z,8.60
2022-10-26T04:41:26.358Z,8.50
2022-10-26T04:45:31.115Z,8.50
2022-10-26T04:49:35.555Z,8.50
2022-10-26T04:53:38.502Z,8.50
2022-10-26T04:57:45.114Z,8.50
2022-10-26T05:01:47.999Z,8.40
2022-10-26T05:05:52.224Z,8.40
2022-10-26T05:09:55.305Z,8.40
2022-10-26T05:13:58.147Z,8.40
2022-10-26T05:18:02.806Z,8.40
2022-10-26T05:22:07.120Z,8.30
2022-10-26T05:26:10.068Z,8.30
2022-10-26T05:30:13.151Z,8.20
2022-10-26T05:34:15.972Z,8.20
2022-10-26T05:38:20.240Z,8.20
2022-10-26T05:42:23.211Z,8.20
2022-10-26T05:46:26.058Z,8.20
2022-10-26T05:50:28.900Z,8.20
2022-10-26T05:54:33.088Z,8.20
2022-10-26T05:58:36.196Z,8.30
2022-10-26T06:02:46.030Z,8.30
2022-10-26T06:06:53.339Z,8.40
2022-10-26T06:10:59.473Z,8.40
2022-10-26T06:15:02.548Z,8.40
2022-10-26T06:19:15.631Z,8.40
2022-10-26T06:23:31.150Z,8.50
2022-10-26T06:27:40.286Z,8.50
2022-10-26T06:31:43.231Z,8.60
2022-10-26T06:35:49.942Z,8.70
2022-10-26T06:39:54.788Z,8.80
2022-10-26T06:43:59.500Z,8.90
2022-10-26T06:48:06.448Z,9.00
2022-10-26T06:52:13.339Z,9.00
2022-10-26T06:56:17.092Z,9.10
2022-10-26T07:00:23.259Z,9.20
2022-10-26T07:04:26.124Z,9.20
2022-10-26T07:08:28.995Z,9.30
2022-10-26T07:12:33.006Z,9.30
2022-10-26T07:16:37.554Z,9.50
2022-10-26T07:20:41.249Z,9.60
2022-10-26T07:24:44.062Z,9.70
2022-10-26T07:28:49.360Z,9.90
2022-10-26T07:32:59.257Z,10.00
2022-10-26T07:37:02.097Z,10.20
2022-10-26T07:41:05.550Z,10.30
2022-10-26T07:45:08.775Z,10.40
2022-10-26T07:49:15.219Z,10.50
2022-10-26T07:53:25.300Z,10.60
2022-10-26T07:57:30.451Z,10.70
2022-10-26T08:01:33.613Z,10.80
2022-10-26T08:05:38.012Z,10.90
2022-10-26T08:09:40.885Z,11.00
2022-10-26T08:13:43.886Z,11.10
2022-10-26T08:17:46.979Z,11.30
2022-10-26T08:21:51.321Z,11.40
2022-10-26T08:25:58.683Z,11.50
2022-10-26T08:30:01.498Z,11.70
2022-10-26T08:34:04.524Z,11.80
2022-10-26T08:38:08.753Z,12.00
2022-10-26T08:42:14.147Z,12.20
2022-10-26T08:46:18.838Z,12.40
2022-10-26T08:50:25.875Z,12.50
2022-10-26T08:54:33.736Z,12.70
2022-10-26T08:58:39.034Z,12.90
2022-10-26T09:02:42.055Z,13.10
2022-10-26T09:06:52.226Z,13.30
2022-10-26T09:11:01.278Z,13.50
2022-10-26T09:15:12.153Z,13.60
2022-10-26T09:19:30.244Z,14.20
2022-10-26T11:37:33.976Z,26.20
2022-10-26T11:41:38.253Z,26.10
2022-10-26T11:45:42.642Z,26.40
2022-10-26T11:49:47.580Z,26.90
2022-10-26T11:53:52.347Z,27.30
2022-10-26T11:57:55.411Z,27.70
2022-10-26T12:02:01.805Z,28.00
2022-10-26T12:06:04.828Z,28.20
2022-10-26T12:10:14.598Z,28.30
2022-10-26T12:14:22.555Z,28.70
2022-10-26T12:18:50.333Z,28.90
2022-10-26T12:22:50.668Z,29.20
2022-10-26T12:26:56.032Z,29.20
2022-10-26T12:31:24.634Z,29.00
2022-10-26T12:35:35.111Z,28.60
2022-10-26T12:39:38.531Z,27.80
2022-10-26T12:48:07.009Z,26.40
2022-10-26T12:52:27.447Z,25.80
2022-10-26T12:56:33.431Z,25.20
2022-10-26T13:00:41.011Z,24.70
2022-10-26T13:05:01.404Z,24.30
2022-10-26T13:13:22.749Z,23.70
2022-10-26T13:17:27.946Z,23.40
2022-10-26T13:21:30.868Z,23.10
2022-10-26T13:25:33.680Z,22.90
2022-10-26T13:29:59.457Z,22.70
2022-10-26T13:34:05.317Z,22.50
2022-10-26T13:38:11.492Z,22.30
2022-10-26T13:42:15.665Z,22.10
2022-10-26T13:46:24.208Z,21.90
2022-10-26T13:50:32.024Z,21.80
2022-10-26T13:54:37.551Z,21.60
2022-10-26T13:58:44.499Z,21.50
2022-10-26T14:02:47.610Z,21.40
2022-10-26T14:06:53.394Z,21.30
2022-10-26T14:10:57.516Z,21.20
2022-10-26T14:15:03.858Z,21.10
2022-10-26T14:19:06.711Z,21.10
2022-10-26T14:23:24.405Z,21.00
2022-10-26T14:27:29.230Z,20.90
2022-10-26T14:31:32.817Z,20.80
2022-10-26T14:35:36.674Z,20.70
2022-10-26T14:39:41.110Z,20.70
2022-10-26T14:43:45.470Z,20.60
2022-10-26T14:47:49.707Z,20.70
2022-10-26T14:51:58.044Z,20.70
2022-10-26T14:56:00.917Z,20.70
2022-10-26T15:00:13.125Z,20.70
2022-10-26T15:04:27.501Z,20.60
2022-10-26T15:08:56.066Z,20.60
2022-10-26T15:12:59.504Z,20.60
2022-10-26T15:17:04.008Z,20.60
2022-10-26T15:21:17.924Z,20.50
2022-10-26T15:25:23.091Z,20.50
2022-10-26T15:29:39.471Z,20.50
2022-10-26T15:33:44.699Z,20.50
2022-10-26T15:37:47.971Z,20.50
2022-10-26T15:41:52.446Z,20.40
2022-10-26T15:45:57.103Z,20.30
2022-10-26T15:50:01.479Z,20.10
2022-10-26T15:54:06.808Z,20.00
2022-10-26T15:58:10.281Z,19.80
2022-10-26T16:02:14.442Z,19.70
2022-10-26T16:06:19.339Z,19.50
2022-10-26T16:10:23.443Z,19.40
2022-10-26T16:14:29.984Z,19.30
2022-10-26T16:18:36.104Z,19.10
2022-10-26T16:22:41.891Z,19.00
2022-10-26T16:26:44.841Z,18.80
2022-10-26T16:30:47.659Z,18.70
2022-10-26T16:34:50.512Z,18.50
2022-10-26T16:38:55.097Z,18.40
2022-10-26T16:42:57.966Z,18.20
2022-10-26T16:47:01.049Z,18.10
2022-10-26T16:51:07.985Z,18.00
2022-10-26T16:55:12.184Z,18.00
2022-10-26T16:59:15.018Z,17.80
2022-10-26T17:03:17.864Z,17.80
2022-10-26T17:07:20.700Z,17.70
2022-10-26T17:11:24.917Z,17.60
2022-10-26T17:15:29.128Z,17.60
2022-10-26T17:19:32.094Z,17.50
2022-10-26T17:23:35.036Z,17.40
2022-10-26T17:27:41.282Z,17.40
2022-10-26T17:31:47.571Z,17.30
2022-10-26T17:35:53.942Z,17.20
2022-10-26T17:39:56.851Z,17.10
2022-10-26T17:44:01.115Z,17.00
2022-10-26T17:48:04.522Z,16.90
2022-10-26T17:52:07.375Z,16.80
2022-10-26T17:56:11.555Z,16.70
2022-10-26T18:00:18.291Z,16.60
2022-10-26T18:04:22.435Z,16.50
2022-10-26T18:08:26.316Z,16.50
2022-10-26T18:12:29.144Z,16.40
2022-10-26T18:16:33.433Z,16.30
2022-10-26T18:20:36.322Z,16.20
2022-10-26T18:24:39.175Z,16.10
2022-10-26T18:28:42.032Z,16.00
2022-10-26T18:32:46.277Z,16.00
2022-10-26T18:36:49.103Z,15.90
2022-10-26T18:40:54.804Z,15.90
2022-10-26T18:45:01.134Z,15.80
2022-10-26T18:49:06.348Z,15.80
2022-10-26T18:53:12.737Z,15.80
2022-10-26T18:57:15.638Z,15.70
2022-10-26T19:01:19.283Z,15.70
2022-10-26T19:05:23.549Z,15.70
2022-10-26T19:09:26.460Z,15.70
2022-10-26T19:13:29.294Z,15.70
2022-10-26T19:17:32.136Z,15.70
2022-10-26T19:21:36.530Z,15.70
2022-10-26T19:25:39.370Z,15.70
2022-10-26T19:29:42.204Z,15.70
2022-10-26T19:33:45.096Z,15.80
2022-10-26T19:37:49.540Z,15.80
2022-10-26T19:41:52.612Z,15.90
2022-10-26T19:45:55.452Z,15.90
2022-10-26T19:49:59.542Z,16.00
2022-10-26T19:54:06.027Z,16.00
2022-10-26T19:58:08.924Z,16.10
2022-10-26T20:02:11.827Z,16.10
2022-10-26T20:06:15.529Z,16.20
2022-10-26T20:10:19.819Z,16.20
2022-10-26T20:14:22.654Z,16.20
2022-10-26T20:18:25.502Z,16.20
2022-10-26T20:22:28.339Z,16.20
2022-10-26T20:26:32.625Z,16.20
2022-10-26T20:30:37.593Z,16.10
2022-10-26T20:34:42.700Z,16.10
2022-10-26T20:38:48.835Z,16.10
2022-10-26T20:42:53.451Z,16.00
2022-10-26T20:46:56.612Z,15.90
2022-10-26T20:51:03.757Z,15.90
2022-10-26T20:55:12.261Z,15.80
2022-10-26T20:59:21.012Z,15.80
2022-10-26T21:03:23.907Z,15.70
2022-10-26T21:07:26.742Z,15.70
2022-10-26T21:11:29.820Z,15.70
2022-10-26T21:15:35.623Z,15.70
2022-10-26T21:19:38.636Z,15.70
2022-10-26T21:23:41.910Z,15.60
2022-10-26T21:27:44.946Z,15.60
2022-10-26T21:31:49.160Z,15.50
2022-10-26T21:35:55.318Z,15.50
2022-10-26T21:39:58.724Z,15.50
2022-10-26T21:44:09.294Z,15.50
2022-10-26T21:48:20.414Z,15.40
2022-10-26T21:52:23.795Z,15.40
2022-10-26T21:56:27.013Z,15.40
2022-10-26T22:00:30.617Z,15.30
2022-10-26T22:04:35.111Z,15.30
2022-10-26T22:08:38.355Z,15.30
2022-10-26T22:12:41.404Z,15.20
2022-10-26T22:16:44.250Z,15.20
2022-10-26T22:20:57.495Z,15.20
2022-10-26T22:25:00.321Z,15.20
2022-10-26T22:29:03.283Z,15.10
2022-10-26T22:33:06.107Z,15.10
2022-10-26T22:37:10.305Z,15.10
2022-10-26T22:41:13.208Z,15.10
2022-10-26T22:45:16.107Z,15.00
2022-10-26T22:49:18.942Z,15.10
2022-10-26T22:53:23.208Z,15.00
2022-10-26T22:57:26.047Z,15.00
2022-10-26T23:01:31.358Z,15.00
2022-10-26T23:05:34.544Z,14.90
2022-10-26T23:09:38.750Z,14.90
2022-10-26T23:13:41.647Z,14.90
2022-10-26T23:17:44.493Z,14.90
2022-10-26T23:21:47.311Z,14.80
2022-10-26T23:25:51.460Z,14.80
2022-10-26T23:29:54.312Z,14.80
2022-10-26T23:33:57.503Z,14.80
2022-10-26T23:38:00.398Z,14.80
2022-10-26T23:42:04.728Z,14.70
2022-10-26T23:46:07.658Z,14.70
2022-10-26T23:50:10.668Z,14.70
2022-10-26T23:54:13.491Z,14.70
2022-10-26T23:58:18.292Z,14.80
